Time;durP1;ratioP1;P1;durP2;ratioP2;P2;SDS_P1;SDS_P2;PMS_P1;PMS_P2;Temp;Humidity;BMP_temperature;BMP_pressure;BME280_temperature;BME280_humidity;BME280_pressure;Samples;Min_cycle;Max_cycle;Signal;HPM_P1;HPM_P2
2021/12/17 00:02:05;;;;;;;14.53;4.73;;;;;;;5.29;91.33;102315.66;1757190;81;21059;-75
2021/12/17 00:04:02;;;;;;;15.67;4.80;;;;;;;5.29;91.29;102313.95;1753322;81;21549;-74
2021/12/17 00:08:54;;;;;;;18.07;4.83;;;;;;;5.28;91.02;102288.79;1757676;81;21079;-74
2021/12/17 00:11:22;;;;;;;12.50;4.47;;;;;;;5.29;90.87;102301.36;1757158;81;21135;-75
2021/12/17 00:13:51;;;;;;;14.67;4.97;;;;;;;5.26;90.78;102300.88;1757379;81;21489;-76
2021/12/17 00:16:22;;;;;;;15.10;4.83;;;;;;;5.28;90.86;102316.52;1757194;81;21012;-74
2021/12/17 00:19:16;;;;;;;15.67;4.50;;;;;;;5.27;90.81;102329.08;1757299;81;21453;-74
2021/12/17 00:48:24;;;;;;;14.07;5.10;;;;;;;5.24;90.64;102336.41;1757501;81;20993;-74
2021/12/17 00:49:06;;;;;;;13.13;4.90;;;;;;;5.23;90.82;102328.56;1753347;81;21087;-74
2021/12/17 00:54:18;;;;;;;13.50;4.40;;;;;;;5.22;90.54;102322.93;1757231;81;21510;-74
2021/12/17 00:56:40;;;;;;;14.20;4.30;;;;;;;5.23;90.45;102337.23;1761032;81;21074;-74
2021/12/17 00:59:07;;;;;;;10.63;4.23;;;;;;;5.23;90.44;102347.64;1763652;81;21084;-74
2021/12/17 01:01:36;;;;;;;14.00;4.60;;;;;;;5.25;90.56;102348.55;1763549;81;20997;-75
2021/12/17 01:04:04;;;;;;;12.80;4.07;;;;;;;5.25;90.41;102339.44;1763626;81;21128;-81
2021/12/17 01:06:31;;;;;;;12.43;4.30;;;;;;;5.25;90.46;102348.55;1763534;81;20969;-74
2021/12/17 01:08:58;;;;;;;16.23;5.27;;;;;;;5.24;90.50;102355.91;1763661;81;20988;-74
2021/12/17 01:11:26;;;;;;;14.67;5.00;;;;;;;5.20;90.55;102356.69;1763491;81;21039;-75
2021/12/17 01:14:12;;;;;;;18.20;5.50;;;;;;;5.18;90.60;102349.71;1763752;81;21456;-75
2021/12/17 01:16:59;;;;;;;16.20;4.40;;;;;;;5.19;90.60;102361.45;1641216;87;21162;-76
2021/12/17 01:25:22;;;;;;;17.13;4.97;;;;;;;5.19;90.50;102352.78;1819127;78;21248;-78
2021/12/17 01:36:02;;;;;;;17.70;5.23;;;;;;;5.16;90.63;102334.11;1820686;78;20992;-75
2021/12/17 01:43:41;;;;;;;20.53;5.00;;;;;;;5.16;90.64;102331.94;1821371;78;22003;-75
2021/12/17 01:46:10;;;;;;;15.30;4.33;;;;;;;5.14;90.52;102332.77;1821733;78;21051;-75
2021/12/17 01:48:59;;;;;;;18.25;4.62;;;;;;;5.13;90.50;102327.13;1821590;78;21326;-74
2021/12/17 01:57:00;;;;;;;12.57;4.10;;;;;;;5.18;90.66;102323.72;1821580;78;21184;-75
2021/12/17 01:59:37;;;;;;;15.50;4.30;;;;;;;5.20;90.66;102324.63;1820956;78;20984;-74
2021/12/17 02:02:05;;;;;;;17.77;4.73;;;;;;;5.22;90.59;102326.83;1821159;78;21418;-75
2021/12/17 02:04:34;;;;;;;12.87;4.50;;;;;;;5.18;90.61;102323.72;1821339;78;20973;-75
2021/12/17 02:07:03;;;;;;;14.70;4.97;;;;;;;5.17;90.65;102331.08;1821619;78;21042;-75
2021/12/17 02:31:57;;;;;;;17.50;4.63;;;;;;;5.20;90.57;102333.30;1719366;83;21029;-75
2021/12/17 02:36:56;;;;;;;18.73;5.27;;;;;;;5.17;90.59;102329.78;1719370;83;21901;-75
2021/12/17 02:47:33;;;;;;;16.27;4.50;;;;;;;5.18;90.31;102317.22;1719706;83;21591;-75
2021/12/17 02:50:00;;;;;;;20.17;4.50;;;;;;;5.19;90.34;102322.45;1719590;83;21115;-75
2021/12/17 02:52:31;;;;;;;15.83;5.27;;;;;;;5.22;90.33;102326.83;1719245;83;21044;-75
2021/12/17 02:54:59;;;;;;;20.60;5.43;;;;;;;5.20;90.42;102314.22;1767244;81;21423;-79
2021/12/17 02:57:27;;;;;;;20.10;5.20;;;;;;;5.21;90.43;102313.36;1772685;81;20985;-75
2021/12/17 02:59:54;;;;;;;19.77;5.10;;;;;;;5.19;90.42;102299.05;1773088;81;21437;-76
2021/12/17 03:02:24;;;;;;;20.90;4.97;;;;;;;5.22;90.38;102302.13;1772917;81;21251;-75
2021/12/17 03:04:52;;;;;;;15.83;5.08;;;;;;;5.23;90.26;102300.84;1773136;80;21001;-75
2021/12/17 03:07:19;;;;;;;18.07;4.53;;;;;;;5.24;90.19;102296.11;1772863;81;21061;-77
2021/12/17 03:12:31;;;;;;;17.70;4.63;;;;;;;5.24;90.12;102290.05;1739353;81;21506;-75
2021/12/17 03:18:03;;;;;;;18.57;5.40;;;;;;;5.21;90.10;102287.36;1772731;81;21005;-75
2021/12/17 03:25:36;;;;;;;16.80;4.73;;;;;;;5.18;89.91;102284.29;1773111;81;21020;-75
2021/12/17 03:28:03;;;;;;;18.17;4.33;;;;;;;5.16;89.87;102282.12;1772794;80;21539;-75
2021/12/17 03:30:30;;;;;;;13.63;4.20;;;;;;;5.17;89.97;102288.19;1773046;81;21019;-75
2021/12/17 03:32:57;;;;;;;16.13;3.70;;;;;;;5.16;89.98;102302.91;1772870;81;21009;-74
2021/12/17 03:35:24;;;;;;;16.83;4.03;;;;;;;5.18;89.93;102300.31;1773085;81;21008;-78
2021/12/17 03:37:53;;;;;;;14.70;4.20;;;;;;;5.17;89.97;102308.55;1772914;81;21013;-75
2021/12/17 03:40:20;;;;;;;12.00;4.40;;;;;;;5.19;89.91;102299.48;1785848;80;21691;-75
2021/12/17 03:42:50;;;;;;;17.27;4.30;;;;;;;5.18;89.96;102299.02;1754331;81;21012;-80
2021/12/17 03:45:19;;;;;;;;;;;;;;;5.18;90.04;102293.39;1760520;81;21000;-75
2021/12/17 03:47:51;;;;;;;11.37;4.87;;;;;;;5.17;89.92;102293.38;1757894;81;20126;-81
2021/12/17 03:50:20;;;;;;;16.73;3.53;;;;;;;5.16;90.02;102298.14;1758069;81;21012;-75
2021/12/17 03:52:48;;;;;;;16.33;3.60;;;;;;;5.18;89.77;102298.59;1785445;80;21108;-75
2021/12/17 03:55:16;;;;;;;17.23;3.77;;;;;;;5.21;89.66;102299.97;1785692;80;21485;-75
2021/12/17 03:57:45;;;;;;;15.37;3.80;;;;;;;5.21;89.69;102306.86;1782993;80;21024;-74
2021/12/17 04:00:13;;;;;;;12.77;3.50;;;;;;;5.21;89.62;102302.96;1733255;82;21019;-82
2021/12/17 04:02:44;;;;;;;13.27;3.97;;;;;;;5.21;89.62;102301.27;1726607;81;21058;-75
2021/12/17 04:05:13;;;;;;;14.80;3.98;;;;;;;5.20;89.69;102300.80;1724974;83;21123;-75
2021/12/17 04:07:40;;;;;;;19.13;4.57;;;;;;;5.19;89.78;102292.56;1725035;83;21020;-75
2021/12/17 04:10:26;;;;;;;16.87;4.23;;;;;;;5.18;89.74;102293.39;1747024;82;21008;-75
2021/12/17 04:13:15;;;;;;;;;;;;;;;5.17;89.47;102294.25;1754040;81;21007;-75
2021/12/17 04:15:34;;;;;;;13.68;3.67;;;;;;;5.18;89.31;102288.19;1746945;82;20454;-75
2021/12/17 04:17:57;;;;;;;15.03;4.30;;;;;;;5.16;89.48;102289.91;1749790;82;21141;-75
2021/12/17 04:20:23;;;;;;;13.53;3.80;;;;;;;5.18;89.43;102292.52;1751402;82;21011;-75
2021/12/17 04:22:50;;;;;;;19.23;4.37;;;;;;;5.14;89.54;102292.48;1751591;82;21019;-75
2021/12/17 04:25:18;;;;;;;17.33;4.37;;;;;;;5.13;89.67;102287.27;1751545;81;21019;-75
2021/12/17 04:27:45;;;;;;;16.47;4.47;;;;;;;5.12;89.82;102281.60;1751751;81;21520;-75
2021/12/17 04:30:12;;;;;;;74.03;28.40;;;;;;;5.10;89.70;102291.99;1751674;81;21041;-75
2021/12/17 04:32:39;;;;;;;18.03;5.87;;;;;;;5.12;89.46;102285.50;1751761;81;21008;-74
2021/12/17 04:35:07;;;;;;;18.00;4.10;;;;;;;5.16;89.39;102296.84;1751545;82;21004;-74
2021/12/17 04:37:35;;;;;;;15.00;3.63;;;;;;;5.17;89.46;102298.58;1750958;81;21460;-75
2021/12/17 04:40:04;;;;;;;14.93;3.80;;;;;;;5.21;89.51;102300.36;1751699;81;21027;-81
2021/12/17 04:43:00;;;;;;;17.90;4.80;;;;;;;5.18;89.48;102296.42;1751765;81;27134;-75
2021/12/17 04:45:05;;;;;;;11.70;4.00;;;;;;;5.14;89.52;102299.41;1744457;82;21068;-75
2021/12/17 04:58:37;;;;;;;16.23;6.33;;;;;;;5.13;89.30;102292.47;1723926;82;21004;-83
2021/12/17 05:01:11;;;;;;;18.67;8.77;;;;;;;5.11;89.47;102302.83;1751497;82;21016;-81
2021/12/17 05:03:34;;;;;;;19.30;4.73;;;;;;;5.10;89.56;102306.29;1750646;82;21012;-75
2021/12/17 05:06:01;;;;;;;14.90;5.70;;;;;;;5.09;89.59;102304.52;1751539;82;21063;-75
2021/12/17 05:08:30;;;;;;;32.90;8.43;;;;;;;5.08;89.56;102302.78;1750920;82;21320;-75
2021/12/17 05:19:22;;;;;;;15.67;5.23;;;;;;;5.12;89.12;102303.27;1751618;82;21464;-75
2021/12/17 05:21:42;;;;;;;;;;;;;;;5.09;89.30;102298.02;1752622;82;21201;-79
2021/12/17 05:24:10;;;;;;;25.67;7.47;;;;;;;5.09;89.31;102294.55;1751542;82;20186;-75
2021/12/17 05:26:37;;;;;;;19.53;4.73;;;;;;;5.04;89.21;102298.80;1751358;82;21077;-75
2021/12/17 05:29:04;;;;;;;16.40;3.63;;;;;;;5.04;89.00;102308.77;1751871;81;21008;-80
2021/12/17 05:31:33;;;;;;;13.80;3.80;;;;;;;5.04;88.71;102286.67;1751699;81;20984;-75
2021/12/17 05:34:00;;;;;;;15.43;4.20;;;;;;;4.98;88.77;102285.28;1724383;81;22202;-76
2021/12/17 05:36:44;;;;;;;13.97;4.30;;;;;;;4.93;88.97;102276.53;1749920;82;21019;-76
2021/12/17 05:39:12;;;;;;;15.77;3.93;;;;;;;4.88;89.04;102272.58;1751532;81;21000;-75
2021/12/17 05:41:41;;;;;;;13.87;4.03;;;;;;;4.90;88.95;102268.30;1751363;82;20981;-77
2021/12/17 05:44:26;;;;;;;14.17;3.60;;;;;;;4.91;88.79;102262.23;1751858;81;21000;-76
2021/12/17 05:46:55;;;;;;;14.37;4.47;;;;;;;4.91;88.75;102273.06;1751596;82;22006;-80
2021/12/17 05:49:27;;;;;;;13.17;3.57;;;;;;;4.88;88.89;102263.92;1751765;81;21019;-76
2021/12/17 05:51:55;;;;;;;18.00;4.93;;;;;;;4.84;89.03;102264.27;1751425;81;21023;-76
2021/12/17 05:54:22;;;;;;;13.20;4.33;;;;;;;4.82;89.07;102271.19;1751799;81;21428;-83
2021/12/17 05:56:52;;;;;;;14.37;3.97;;;;;;;4.85;88.93;102266.04;1752035;81;21016;-76
2021/12/17 05:59:20;;;;;;;21.27;7.17;;;;;;;4.87;88.80;102271.24;1754434;81;21125;-76
2021/12/17 06:01:48;;;;;;;14.43;5.20;;;;;;;4.87;88.69;102267.34;1754395;81;20997;-76
2021/12/17 06:04:16;;;;;;;29.00;10.87;;;;;;;4.82;88.79;102264.69;1754428;81;21015;-76
2021/12/17 06:06:51;;;;;;;20.73;6.13;;;;;;;4.79;88.92;102273.70;1753140;81;21015;-76
2021/12/17 06:09:18;;;;;;;19.73;6.17;;;;;;;4.78;88.98;102282.36;1754529;81;21020;-82
2021/12/17 06:11:45;;;;;;;11.37;3.97;;;;;;;4.78;88.76;102277.16;1754480;81;21124;-76
2021/12/17 06:14:14;;;;;;;12.00;3.10;;;;;;;4.78;88.56;102275.00;1754305;81;21478;-75
2021/12/17 06:16:42;;;;;;;10.97;3.40;;;;;;;4.76;88.53;102272.36;1754454;81;21003;-75
2021/12/17 06:19:12;;;;;;;20.83;6.50;;;;;;;4.71;88.55;102274.00;1754754;81;21012;-81
2021/12/17 06:21:40;;;;;;;19.13;4.17;;;;;;;4.65;88.53;102270.00;1754351;81;21004;-75
2021/12/17 06:24:08;;;;;;;17.77;3.67;;;;;;;4.59;88.53;102269.47;1754865;81;21168;-75
2021/12/17 06:26:35;;;;;;;9.93;3.17;;;;;;;4.58;88.46;102259.08;1754272;81;21007;-81
2021/12/17 06:29:04;;;;;;;15.37;4.60;;;;;;;4.57;88.18;102247.82;1754556;81;21280;-78
2021/12/17 06:31:31;;;;;;;13.27;3.57;;;;;;;4.55;88.08;102260.33;1754479;81;21004;-77
2021/12/17 06:33:59;;;;;;;19.03;4.27;;;;;;;4.52;88.15;102255.05;1754699;81;20968;-75
2021/12/17 06:36:26;;;;;;;16.07;5.07;;;;;;;4.45;88.26;102253.64;1754483;81;21045;-76
2021/12/17 06:38:58;;;;;;;24.20;7.87;;;;;;;4.42;88.37;102251.43;1754506;81;20984;-76
2021/12/17 06:41:26;;;;;;;28.93;9.13;;;;;;;4.38;88.41;102254.80;1754494;81;21540;-76
2021/12/17 06:43:55;;;;;;;11.40;4.53;;;;;;;4.33;88.25;102250.84;1754750;81;20992;-75
2021/12/17 06:46:38;;;;;;;12.30;4.10;;;;;;;4.32;88.22;102249.50;1754486;81;22326;-76
2021/12/17 06:54:57;;;;;;;15.63;4.67;;;;;;;4.24;88.17;102239.00;1754508;81;21040;-76
2021/12/17 07:20:30;;;;;;;14.83;4.73;;;;;;;4.22;88.79;102276.59;1749986;82;21550;-82
2021/12/17 07:33:05;;;;;;;10.27;3.70;;;;;;;4.39;88.41;102277.34;1762329;80;21015;-84
2021/12/17 07:40:37;;;;;;;16.20;4.30;;;;;;;4.41;88.35;102276.95;1750232;82;21059;-78
2021/12/17 07:43:12;;;;;;;27.27;11.13;;;;;;;4.46;88.15;102273.59;1750000;82;21118;-79
2021/12/17 07:45:36;;;;;;;19.63;6.60;;;;;;;4.47;88.06;102283.12;1748364;82;21040;-79
2021/12/17 07:48:06;;;;;;;15.73;3.60;;;;;;;4.50;88.04;102292.69;1750076;81;21023;-81
2021/12/17 07:50:38;;;;;;;15.80;5.47;;;;;;;4.53;88.12;102294.04;1762466;80;21003;-79
2021/12/17 07:53:10;;;;;;;27.13;11.13;;;;;;;4.51;88.02;102295.73;1772465;80;21000;-85
2021/12/17 07:55:41;;;;;;;33.70;12.77;;;;;;;4.53;88.13;102311.35;1780955;80;21121;-83
2021/12/17 07:58:10;;;;;;;24.30;8.83;;;;;;;4.55;88.21;102316.16;1781569;80;21023;-82
2021/12/17 08:00:39;;;;;;;22.87;9.40;;;;;;;4.59;88.03;102322.71;1782400;80;20976;-82
2021/12/17 08:03:06;;;;;;;30.33;11.63;;;;;;;4.61;87.97;102325.35;1782736;80;21016;-83
2021/12/17 08:05:34;;;;;;;23.13;7.90;;;;;;;4.65;88.00;102331.05;1779502;80;21020;-86
2021/12/17 08:08:01;;;;;;;24.13;8.87;;;;;;;4.68;88.07;102337.59;1725109;83;21115;-80
2021/12/17 08:10:31;;;;;;;37.03;12.30;;;;;;;4.72;88.02;102345.03;1725245;83;21490;-78
2021/12/17 08:12:58;;;;;;;14.23;4.63;;;;;;;4.75;88.02;102342.06;1723737;82;21016;-77
2021/12/17 08:15:32;;;;;;;20.63;7.77;;;;;;;4.79;88.03;102349.47;1751848;81;21076;-76
2021/12/17 08:23:53;;;;;;;20.17;9.60;;;;;;;4.81;87.92;102360.78;1753150;80;21043;-80
2021/12/17 08:26:04;;;;;;;17.07;5.75;;;;;;;4.81;87.84;102356.45;1748006;81;21493;-79
2021/12/17 08:28:18;;;;;;;17.80;5.97;;;;;;;4.86;87.59;102361.74;1748840;82;20924;-82
2021/12/17 08:30:46;;;;;;;14.67;4.37;;;;;;;4.84;87.31;102358.23;1738682;80;21020;-79
2021/12/17 08:33:19;;;;;;;15.63;5.27;;;;;;;4.84;87.43;102354.34;1778710;80;21890;-81
2021/12/17 08:35:44;;;;;;;24.33;10.17;;;;;;;4.84;87.48;102353.04;1753339;81;21075;-81
2021/12/17 08:38:19;;;;;;;12.03;5.40;;;;;;;4.83;87.59;102359.09;1763725;81;21040;-80
2021/12/17 08:40:49;;;;;;;13.57;4.57;;;;;;;4.85;87.59;102363.88;1766583;81;20988;-81
2021/12/17 08:43:15;;;;;;;24.63;7.63;;;;;;;4.87;87.28;102358.28;1751703;81;21479;-86
2021/12/17 08:45:44;;;;;;;14.93;4.70;;;;;;;4.88;87.24;102349.66;1736864;81;21176;-81
2021/12/17 08:48:16;;;;;;;18.53;6.77;;;;;;;4.88;87.17;102349.66;1696836;80;21008;-82
2021/12/17 08:50:45;;;;;;;11.10;4.27;;;;;;;4.91;87.11;102348.41;1749955;81;22026;-80
2021/12/17 08:53:13;;;;;;;17.10;5.80;;;;;;;4.88;87.23;102345.33;1712343;81;21064;-81
2021/12/17 08:55:42;;;;;;;13.20;5.67;;;;;;;4.89;87.30;102341.01;1745295;82;21040;-79
2021/12/17 08:58:13;;;;;;;14.57;4.60;;;;;;;4.89;87.25;102343.17;1748637;81;21119;-80
2021/12/17 09:00:43;;;;;;;13.65;4.28;;;;;;;4.86;87.12;102343.13;1723108;83;20906;-81
2021/12/17 09:03:11;;;;;;;11.80;4.45;;;;;;;4.92;87.00;102355.34;1739617;81;21008;-81
2021/12/17 09:05:46;;;;;;;12.80;3.37;;;;;;;4.96;86.82;102358.47;1736479;82;21024;-79
2021/12/17 09:08:15;;;;;;;;;;;;;;;5.01;87.00;102353.33;1738326;82;21579;-78
2021/12/17 09:10:52;;;;;;;25.87;8.97;;;;;;;5.02;86.98;102353.80;1735600;81;22069;-78
2021/12/17 09:13:18;;;;;;;34.93;12.53;;;;;;;5.01;87.21;102364.59;1736115;82;20968;-78
2021/12/17 09:15:46;;;;;;;24.33;10.70;;;;;;;5.04;87.20;102362.48;1736427;82;20991;-78
2021/12/17 09:18:15;;;;;;;19.30;5.07;;;;;;;5.06;87.20;102372.05;1734317;82;21023;-77
2021/12/17 09:20:45;;;;;;;18.70;4.83;;;;;;;5.05;87.10;102372.91;1735167;82;21286;-81
2021/12/17 09:23:12;;;;;;;13.33;4.23;;;;;;;5.09;86.96;102381.20;1735676;82;21126;-78
2021/12/17 09:25:40;;;;;;;16.70;5.50;;;;;;;5.16;86.82;102387.83;1735279;82;21537;-79
2021/12/17 09:28:08;;;;;;;13.87;4.63;;;;;;;5.17;86.83;102379.17;1734419;82;21461;-79
2021/12/17 09:30:56;;;;;;;16.73;6.37;;;;;;;5.17;86.73;102385.23;1734799;82;21090;-78
2021/12/17 09:33:23;;;;;;;14.13;5.77;;;;;;;5.16;86.72;102385.23;1735722;82;21060;-80
2021/12/17 09:35:50;;;;;;;17.33;6.07;;;;;;;5.14;86.82;102383.45;1736064;82;21944;-78
2021/12/17 09:38:18;;;;;;;13.13;5.80;;;;;;;5.17;86.88;102381.77;1735930;82;21031;-78
2021/12/17 09:40:45;;;;;;;14.20;4.77;;;;;;;5.16;86.81;102378.73;1736377;82;21034;-78
2021/12/17 09:43:15;;;;;;;15.50;3.93;;;;;;;5.16;86.76;102378.30;1736401;82;21027;-78
2021/12/17 09:45:42;;;;;;;12.20;4.07;;;;;;;5.20;86.50;102370.12;1736333;82;21078;-78
2021/12/17 09:48:09;;;;;;;14.97;5.33;;;;;;;5.22;86.39;102374.50;1736315;82;21787;-78
2021/12/17 09:50:36;;;;;;;11.07;4.07;;;;;;;5.24;86.29;102361.53;1736140;82;20996;-78
2021/12/17 09:53:04;;;;;;;13.73;5.30;;;;;;;5.22;86.35;102358.03;1736395;82;21063;-78
2021/12/17 09:55:31;;;;;;;21.30;11.23;;;;;;;5.17;86.31;102355.77;1736164;82;21035;-77
2021/12/17 09:57:58;;;;;;;20.90;13.87;;;;;;;5.16;86.52;102374.83;1736455;81;21036;-79
2021/12/17 10:00:27;;;;;;;21.40;12.93;;;;;;;5.17;86.59;102364.88;1736134;82;21123;-78
2021/12/17 10:02:54;;;;;;;14.00;6.87;;;;;;;5.17;86.46;102363.57;1736122;82;21022;-78
2021/12/17 10:05:32;;;;;;;13.70;5.33;;;;;;;5.23;86.10;102361.94;1736086;82;21562;-78
2021/12/17 10:08:04;;;;;;;12.93;5.67;;;;;;;5.26;86.03;102371.08;1736526;82;21027;-78
2021/12/17 10:10:42;;;;;;;10.73;4.17;;;;;;;5.25;86.06;102353.74;1734627;82;21031;-78
2021/12/17 10:13:14;;;;;;;8.73;4.70;;;;;;;5.22;86.00;102368.42;1736538;82;21054;-78
2021/12/17 10:15:46;;;;;;;14.30;6.70;;;;;;;5.19;86.08;102374.88;1736085;82;21521;-84
2021/12/17 10:18:14;;;;;;;14.37;5.17;;;;;;;5.21;86.16;102386.16;1736529;82;21031;-78
2021/12/17 10:20:58;;;;;;;15.30;4.57;;;;;;;5.19;86.08;102380.08;1736023;82;21023;-79
2021/12/17 10:23:27;;;;;;;14.23;6.17;;;;;;;5.23;85.90;102383.16;1736629;82;21034;-77
2021/12/17 10:25:56;;;;;;;14.83;7.27;;;;;;;5.25;85.77;102378.45;1736071;82;21520;-78
2021/12/17 10:28:23;;;;;;;17.97;5.97;;;;;;;5.25;85.67;102371.08;1736314;82;21457;-77
2021/12/17 10:30:53;;;;;;;10.47;4.90;;;;;;;5.23;85.85;102371.03;1736082;82;21015;-78
2021/12/17 10:33:24;;;;;;;10.60;4.47;;;;;;;5.24;85.96;102377.14;1736647;82;21027;-79
2021/12/17 10:35:53;;;;;;;14.87;5.00;;;;;;;5.22;85.97;102378.83;1736146;82;21046;-78
2021/12/17 10:38:25;;;;;;;20.30;6.05;;;;;;;5.18;85.94;102381.77;1736643;82;21111;-78
2021/12/17 10:41:06;;;;;;;12.50;5.30;;;;;;;5.25;85.92;102381.47;1736120;82;21074;-78
2021/12/17 10:43:43;;;;;;;31.73;10.87;;;;;;;5.26;85.69;102377.58;1736299;82;21008;-78
2021/12/17 10:46:31;;;;;;;28.30;9.23;;;;;;;5.27;85.74;102378.05;1735945;82;21016;-78
2021/12/17 10:54:18;;;;;;;27.80;9.23;;;;;;;5.16;85.73;102373.53;1736164;82;21023;-79
2021/12/17 10:56:55;;;;;;;23.83;8.10;;;;;;;5.13;85.71;102373.05;1735541;82;21058;-80
2021/12/17 10:59:31;;;;;;;23.10;9.20;;;;;;;5.14;85.62;102369.16;1715342;82;21060;-78
2021/12/17 11:02:06;;;;;;;19.63;6.30;;;;;;;5.17;85.52;102359.24;1736592;82;21023;-78
2021/12/17 11:04:38;;;;;;;20.23;6.17;;;;;;;5.14;85.45;102363.96;1735989;82;21511;-78
2021/12/17 11:07:14;;;;;;;19.30;6.90;;;;;;;5.08;85.54;102366.89;1736244;82;21489;-78
2021/12/17 11:09:58;;;;;;;19.37;6.77;;;;;;;5.05;85.65;102362.95;1736122;81;21011;-78
2021/12/17 11:12:33;;;;;;;17.73;5.97;;;;;;;5.03;85.71;102362.91;1736441;82;21011;-78
2021/12/17 11:15:24;;;;;;;20.70;5.63;;;;;;;5.01;85.60;102351.59;1736328;82;21032;-78
2021/12/17 11:17:58;;;;;;;15.13;4.80;;;;;;;5.05;85.46;102344.32;1736550;81;21093;-78
2021/12/17 11:20:29;;;;;;;17.70;5.50;;;;;;;5.09;85.21;102348.70;1736538;82;21438;-78
2021/12/17 11:23:04;;;;;;;15.00;6.23;;;;;;;5.04;85.11;102357.28;1736627;82;21031;-77
2021/12/17 11:25:28;;;;;;;13.47;5.43;;;;;;;4.98;85.26;102356.75;1736599;82;21024;-78
2021/12/17 11:27:55;;;;;;;12.03;4.27;;;;;;;4.97;85.40;102355.01;1736575;82;21273;-78
2021/12/17 11:30:25;;;;;;;9.77;3.70;;;;;;;4.96;85.26;102352.37;1736403;81;21133;-77
2021/12/17 11:32:53;;;;;;;;;;;;;;;5.00;85.20;102360.26;1739060;82;20984;-81
2021/12/17 11:35:24;;;;;;;10.47;3.33;;;;;;;5.02;84.97;102359.87;1736336;82;20294;-77
2021/12/17 11:37:54;;;;;;;12.10;4.50;;;;;;;5.04;85.10;102355.98;1736559;82;21032;-78
2021/12/17 11:40:51;;;;;;;14.43;4.50;;;;;;;5.03;85.13;102358.14;1736464;81;21266;-78
2021/12/17 11:43:40;;;;;;;13.53;4.90;;;;;;;5.03;85.39;102347.31;1736522;82;21532;-82
2021/12/17 11:46:13;;;;;;;9.63;2.87;;;;;;;5.04;85.38;102351.65;1736263;81;21008;-78
2021/12/17 11:48:52;;;;;;;10.50;3.50;;;;;;;5.03;85.21;102343.41;1736662;81;20984;-81
2021/12/17 11:51:27;;;;;;;10.57;3.37;;;;;;;4.98;85.10;102347.66;1735500;82;20978;-78
2021/12/17 11:54:10;;;;;;;8.33;2.83;;;;;;;5.03;84.99;102346.44;1720145;82;21446;-78
2021/12/17 11:56:51;;;;;;;9.03;3.07;;;;;;;5.04;84.81;102338.66;1736281;82;21878;-81
2021/12/17 11:59:32;;;;;;;7.60;2.77;;;;;;;5.07;84.76;102346.53;1745073;81;21012;-78
2021/12/17 12:02:16;;;;;;;7.47;2.50;;;;;;;5.03;84.76;102338.64;1757272;81;21460;-78
2021/12/17 12:04:59;;;;;;;6.80;2.30;;;;;;;4.99;84.84;102342.92;1757618;81;21060;-78
2021/12/17 12:07:33;;;;;;;11.13;2.90;;;;;;;4.97;85.01;102349.81;1754345;81;21579;-78
2021/12/17 12:10:21;;;;;;;7.83;2.90;;;;;;;4.96;85.02;102354.57;1710814;82;21141;-78
2021/12/17 12:12:53;;;;;;;8.47;2.67;;;;;;;4.95;85.01;102354.53;1706866;82;21039;-76
2021/12/17 12:15:30;;;;;;;10.67;2.97;;;;;;;4.99;84.74;102354.63;1736610;82;20946;-77
2021/12/17 12:18:15;;;;;;;8.23;2.53;;;;;;;5.01;84.69;102351.59;1736033;82;21039;-78
2021/12/17 12:20:51;;;;;;;10.73;2.63;;;;;;;5.00;84.60;102354.19;1710559;82;21016;-76
2021/12/17 12:23:33;;;;;;;9.20;3.33;;;;;;;4.94;84.77;102356.69;1730076;82;21134;-78
2021/12/17 12:26:08;;;;;;;8.43;3.30;;;;;;;4.90;84.91;102348.84;1736561;82;20980;-76
2021/12/17 12:28:49;;;;;;;11.00;3.93;;;;;;;4.89;85.07;102344.91;1736230;82;21465;-76
2021/12/17 12:31:37;;;;;;;7.53;2.67;;;;;;;4.87;85.08;102336.20;1736613;82;21012;-77
2021/12/17 12:34:16;;;;;;;10.03;3.23;;;;;;;4.90;85.02;102340.14;1734627;82;21059;-76
2021/12/17 12:37:18;;;;;;;11.03;3.17;;;;;;;4.96;84.83;102334.18;1730753;82;21112;-79
2021/12/17 12:39:57;;;;;;;13.27;3.27;;;;;;;5.00;84.94;102338.16;1735300;82;21031;-78
2021/12/17 12:42:32;;;;;;;8.60;3.43;;;;;;;5.02;85.11;102343.41;1736298;82;21058;-81
2021/12/17 12:45:07;;;;;;;11.07;3.60;;;;;;;5.01;85.14;102341.63;1736309;82;21023;-82
2021/12/17 12:47:54;;;;;;;9.87;3.60;;;;;;;4.98;85.14;102328.16;1736587;82;21015;-80
2021/12/17 12:50:24;;;;;;;10.73;3.17;;;;;;;4.97;85.11;102322.52;1735965;82;22007;-76
2021/12/17 12:52:59;;;;;;;11.27;3.00;;;;;;;4.95;85.14;102324.22;1736206;82;21034;-75
2021/12/17 12:55:43;;;;;;;10.07;2.83;;;;;;;4.99;84.94;102324.73;1733360;81;21043;-74
2021/12/17 12:58:27;;;;;;;14.17;5.90;;;;;;;5.04;84.77;102319.59;1753500;80;21029;-76
2021/12/17 13:00:59;;;;;;;13.27;6.10;;;;;;;5.06;84.85;102317.47;1772448;80;21021;-80
2021/12/17 13:03:31;;;;;;;13.17;4.67;;;;;;;5.05;84.86;102311.83;1754685;81;21099;-74
2021/12/17 13:06:01;;;;;;;10.97;3.53;;;;;;;5.05;84.93;102316.16;1764207;80;20965;-80
2021/12/17 13:08:31;;;;;;;7.67;2.47;;;;;;;5.02;84.88;102316.98;1739384;81;21058;-81
2021/12/17 13:11:06;;;;;;;11.83;3.87;;;;;;;5.02;85.01;102317.41;1746237;81;21071;-80
2021/12/17 13:13:45;;;;;;;8.43;2.63;;;;;;;5.04;85.11;102321.76;1753653;81;21015;-78
2021/12/17 13:21:43;;;;;;;13.10;4.10;;;;;;;5.08;84.61;102325.30;1774767;80;21000;-77
2021/12/17 13:24:19;;;;;;;21.40;9.30;;;;;;;5.07;84.83;102323.14;1759641;81;21568;-78
2021/12/17 13:27:03;;;;;;;10.70;4.30;;;;;;;5.08;84.92;102333.97;1763989;81;21679;-79
2021/12/17 13:29:34;;;;;;;12.43;4.77;;;;;;;5.08;84.93;102327.91;1763912;81;21111;-76
2021/12/17 13:32:12;;;;;;;12.93;4.20;;;;;;;5.09;85.02;102317.95;1752737;81;21637;-77
2021/12/17 13:34:56;;;;;;;10.27;4.20;;;;;;;5.12;84.68;102326.66;1761888;81;21520;-79
2021/12/17 13:37:34;;;;;;;11.67;3.90;;;;;;;5.17;84.71;102329.34;1762092;81;21561;-78
2021/12/17 13:40:11;;;;;;;12.37;3.67;;;;;;;5.17;84.71;102334.55;1759112;81;22023;-79
2021/12/17 13:42:42;;;;;;;15.53;4.80;;;;;;;5.18;84.82;102334.11;1747733;82;21120;-77
2021/12/17 13:45:13;;;;;;;12.37;5.70;;;;;;;5.16;84.90;102330.20;1750110;81;20996;-77
2021/12/17 13:47:47;;;;;;;10.03;4.60;;;;;;;5.14;84.82;102343.16;1733641;81;21027;-77
2021/12/17 13:50:24;;;;;;;22.87;9.67;;;;;;;5.13;84.89;102340.12;1749248;81;21478;-78
2021/12/17 13:53:08;;;;;;;12.87;6.77;;;;;;;5.12;84.85;102338.78;1739913;81;21040;-79
2021/12/17 13:55:39;;;;;;;8.37;3.10;;;;;;;5.14;84.65;102348.80;1742374;82;21091;-78
2021/12/17 13:58:15;;;;;;;9.37;3.57;;;;;;;5.14;84.47;102340.56;1746953;82;21490;-78
2021/12/17 14:00:52;;;;;;;8.53;3.60;;;;;;;5.14;84.52;102345.77;1731440;81;21011;-77
2021/12/17 14:03:28;;;;;;;11.27;6.70;;;;;;;5.12;84.67;102349.19;1726999;83;21034;-81
2021/12/17 14:06:10;;;;;;;15.43;8.87;;;;;;;5.11;84.79;102343.55;1725731;83;21076;-75
2021/12/17 14:08:27;;;;;;;14.13;7.87;;;;;;;5.09;84.85;102346.54;1725050;83;21139;-74
2021/12/17 14:10:54;;;;;;;22.00;10.13;;;;;;;5.11;85.02;102338.35;1725741;83;21031;-76
2021/12/17 14:13:26;;;;;;;12.80;6.07;;;;;;;5.10;84.97;102340.08;1727059;83;21018;-75
2021/12/17 14:15:55;;;;;;;13.57;4.77;;;;;;;5.13;84.65;102331.46;1725813;83;21039;-76
2021/12/17 14:18:27;;;;;;;13.10;5.00;;;;;;;5.11;84.46;102334.02;1727085;83;20999;-80
2021/12/17 14:20:59;;;;;;;11.33;4.67;;;;;;;5.10;84.46;102328.39;1701400;83;21204;-86
2021/12/17 14:23:29;;;;;;;12.90;5.20;;;;;;;5.10;84.61;102347.02;1726704;83;21014;-84
2021/12/17 14:26:03;;;;;;;9.38;5.55;;;;;;;5.07;84.74;102346.53;1725631;83;21016;-86
2021/12/17 14:28:33;;;;;;;8.33;4.70;;;;;;;5.05;84.76;102351.25;1726827;83;21019;-81
2021/12/17 14:31:10;;;;;;;13.68;4.37;;;;;;;5.02;84.76;102358.57;1725852;83;21063;-81
2021/12/17 14:33:45;;;;;;;9.93;4.23;;;;;;;4.99;84.78;102346.83;1727060;83;21469;-84
2021/12/17 14:36:19;;;;;;;12.07;4.93;;;;;;;5.03;84.60;102367.23;1725391;83;20992;-79
2021/12/17 14:39:00;;;;;;;22.20;8.67;;;;;;;5.04;84.47;102366.38;1722745;83;21051;-79
2021/12/17 14:41:42;;;;;;;13.97;5.27;;;;;;;5.03;84.60;102362.91;1718579;82;21070;-79
2021/12/17 14:44:35;;;;;;;15.37;6.90;;;;;;;5.07;84.67;102374.22;1725976;83;21003;-80
2021/12/17 14:46:57;;;;;;;16.57;7.17;;;;;;;5.06;84.82;102369.88;1719099;82;21964;-78